createdAt,value
2023-01-02T00:00:44.123Z,6.40
2023-01-02T00:03:12.107Z,6.93
2023-01-02T00:05:40.847Z,5.97
2023-01-02T00:08:08.274Z,6.00
2023-01-02T00:10:36.553Z,7.75
2023-01-02T00:13:03.817Z,5.93
2023-01-02T00:15:31.271Z,5.80
2023-01-02T00:17:58.630Z,10.40
2023-01-02T00:20:26.472Z,6.97
2023-01-02T00:22:53.726Z,6.82
2023-01-02T00:25:21.237Z,6.32
2023-01-02T00:27:48.753Z,7.47
2023-01-02T00:30:16.060Z,8.10
2023-01-02T00:32:43.439Z,7.53
2023-01-02T00:35:10.806Z,7.80
2023-01-02T00:37:38.140Z,8.60
2023-01-02T00:40:06.124Z,8.98
2023-01-02T00:42:33.466Z,8.57
2023-01-02T00:45:00.700Z,9.18
2023-01-02T00:47:27.986Z,9.10
2023-01-02T00:49:55.246Z,9.10
2023-01-02T00:52:22.563Z,10.90
2023-01-02T00:54:49.850Z,10.10
2023-01-02T00:57:17.204Z,9.75
2023-01-02T00:59:44.600Z,11.10
2023-01-02T01:02:12.239Z,11.90
2023-01-02T01:04:39.829Z,11.98
2023-01-02T01:07:07.233Z,12.30
2023-01-02T01:09:34.792Z,12.15
2023-01-02T01:12:04.869Z,12.43
2023-01-02T01:14:32.691Z,13.45
2023-01-02T01:17:00.722Z,12.73
2023-01-02T01:19:36.070Z,11.93
2023-01-02T01:22:03.504Z,13.02
2023-01-02T01:24:31.146Z,12.38
2023-01-02T01:26:58.590Z,12.55
2023-01-02T01:29:25.950Z,13.10
2023-01-02T01:31:53.333Z,12.48
2023-01-02T01:34:20.788Z,12.88
2023-01-02T01:36:48.033Z,12.57
2023-01-02T01:39:15.365Z,13.80
2023-01-02T01:41:43.180Z,14.07
2023-01-02T01:44:43.273Z,14.30
2023-01-02T01:47:19.258Z,14.83
2023-01-02T01:49:47.685Z,16.10
2023-01-02T01:52:20.580Z,15.73
2023-01-02T01:54:56.961Z,16.77
2023-01-02T01:57:37.230Z,18.00
2023-01-02T02:00:05.672Z,19.63
2023-01-02T02:02:34.235Z,20.42
2023-01-02T02:05:05.800Z,21.70
2023-01-02T02:07:37.065Z,20.13
2023-01-02T02:10:08.736Z,21.23
2023-01-02T02:12:37.320Z,21.38
2023-01-02T02:15:07.372Z,20.83
2023-01-02T02:17:53.001Z,23.48
2023-01-02T02:20:30.899Z,21.52
2023-01-02T02:23:10.660Z,24.15
2023-01-02T02:26:02.665Z,22.75
2023-01-02T02:28:45.695Z,21.00
2023-01-02T02:31:29.753Z,23.88
2023-01-02T02:34:05.170Z,24.17
2023-01-02T02:36:45.363Z,23.55
2023-01-02T02:39:33.811Z,22.08
2023-01-02T02:42:42.132Z,22.48
2023-01-02T02:45:16.589Z,22.67
2023-01-02T02:48:25.415Z,20.05
2023-01-02T02:51:08.267Z,24.17
2023-01-02T02:53:42.740Z,20.65
2023-01-02T02:56:11.883Z,18.65
2023-01-02T02:58:42.054Z,19.00
2023-01-02T03:01:16.323Z,20.38
2023-01-02T03:03:44.363Z,20.05
2023-01-02T03:06:22.206Z,19.08
2023-01-02T03:09:41.259Z,17.83
2023-01-02T03:12:33.002Z,17.08
2023-01-02T03:15:12.889Z,16.75
2023-01-02T03:18:02.096Z,16.60
2023-01-02T03:20:46.245Z,15.10
2023-01-02T03:23:21.434Z,17.52
2023-01-02T03:25:49.292Z,16.95
2023-01-02T03:28:20.367Z,16.35
2023-01-02T03:30:51.768Z,17.88
2023-01-02T03:33:26.074Z,15.75
2023-01-02T03:36:10.888Z,17.48
2023-01-02T03:38:49.569Z,16.80
2023-01-02T03:41:25.866Z,17.00
2023-01-02T03:43:57.322Z,16.83
2023-01-02T03:46:27.699Z,15.75
2023-01-02T03:49:10.576Z,15.48
2023-01-02T03:51:38.198Z,16.00
2023-01-02T03:54:06.807Z,13.88
2023-01-02T03:57:14.518Z,16.17
2023-01-02T04:00:10.708Z,16.90
2023-01-02T04:03:03.708Z,14.63
2023-01-02T04:05:50.874Z,16.05
2023-01-02T04:08:50.753Z,16.25
2023-01-02T04:11:21.662Z,16.50
2023-01-02T04:13:56.421Z,15.52
2023-01-02T04:16:30.023Z,14.10
2023-01-02T04:19:22.892Z,15.30
2023-01-02T04:21:53.972Z,15.93
2023-01-02T04:24:34.161Z,16.02
2023-01-02T04:27:23.115Z,16.67
2023-01-02T04:29:51.503Z,16.30
2023-01-02T04:32:27.846Z,16.40
2023-01-02T04:34:56.873Z,17.10
2023-01-02T04:37:28.476Z,15.88
2023-01-02T04:40:04.097Z,16.05
2023-01-02T04:42:31.603Z,15.43
2023-01-02T04:44:59.150Z,15.90
2023-01-02T04:47:26.527Z,16.60
2023-01-02T04:49:53.907Z,16.08
2023-01-02T04:52:21.390Z,16.98
2023-01-02T04:54:48.665Z,16.63
2023-01-02T04:57:16.103Z,15.55
2023-01-02T04:59:44.957Z,15.30
2023-01-02T05:02:13.837Z,17.20
2023-01-02T05:04:41.155Z,16.60
2023-01-02T05:07:08.497Z,14.70
2023-01-02T05:09:35.767Z,17.08
2023-01-02T05:12:03.177Z,17.25
2023-01-02T05:14:31.247Z,14.70
2023-01-02T05:16:58.793Z,14.10
2023-01-02T05:19:26.065Z,13.25
2023-01-02T05:22:13.066Z,12.65
2023-01-02T05:24:41.457Z,12.90
2023-01-02T05:27:08.717Z,11.27
2023-01-02T05:29:36.030Z,11.73
2023-01-02T05:32:03.402Z,10.95
2023-01-02T05:34:30.824Z,12.07
2023-01-02T05:36:58.189Z,11.82
2023-01-02T05:39:25.440Z,11.10
2023-01-02T05:41:53.206Z,12.85
2023-01-02T05:44:21.702Z,13.30
2023-01-02T05:46:48.943Z,12.10
2023-01-02T05:49:16.263Z,12.07
2023-01-02T05:51:43.559Z,12.07
2023-01-02T05:54:10.978Z,13.20
2023-01-02T05:56:38.304Z,14.60
2023-01-02T05:59:08.495Z,14.38
2023-01-02T06:01:36.702Z,19.45
2023-01-02T06:04:04.254Z,13.10
2023-01-02T06:06:34.480Z,11.55
2023-01-02T06:09:03.488Z,13.27
2023-01-02T06:11:31.483Z,12.93
2023-01-02T06:13:59.131Z,13.57
2023-01-02T06:16:27.042Z,14.30
2023-01-02T06:18:55.569Z,12.93
2023-01-02T06:21:22.991Z,13.77
2023-01-02T06:23:55.618Z,14.00
2023-01-02T06:26:26.021Z,12.27
2023-01-02T06:28:57.868Z,12.73
2023-01-02T06:31:27.628Z,12.90
2023-01-02T06:34:00.358Z,12.68
2023-01-02T06:36:31.613Z,11.55
2023-01-02T06:38:59.202Z,12.27
2023-01-02T06:41:26.879Z,10.38
2023-01-02T06:43:54.799Z,10.30
2023-01-02T06:46:23.697Z,9.45
2023-01-02T06:48:51.443Z,11.73
2023-01-02T06:51:21.258Z,8.57
2023-01-02T06:53:51.089Z,9.40
2023-01-02T06:56:20.035Z,10.93
2023-01-02T06:58:50.012Z,9.77
2023-01-02T07:01:22.312Z,9.90
2023-01-02T07:03:51.263Z,5.97
2023-01-02T07:06:21.664Z,5.60
2023-01-02T07:08:50.605Z,6.10
2023-01-02T07:11:25.224Z,5.43
2023-01-02T07:13:54.418Z,6.20
2023-01-02T07:16:23.383Z,5.78
2023-01-02T07:18:54.770Z,7.22
2023-01-02T07:21:22.938Z,7.68
2023-01-02T07:23:51.763Z,8.32
2023-01-02T07:26:19.308Z,8.27
2023-01-02T07:28:47.605Z,5.57
2023-01-02T07:31:18.041Z,4.90
2023-01-02T07:33:46.333Z,4.90
2023-01-02T07:36:16.595Z,4.35
2023-01-02T07:38:44.411Z,4.32
2023-01-02T07:41:16.454Z,3.90
2023-01-02T07:43:45.569Z,3.97
2023-01-02T07:46:15.370Z,4.05
2023-01-02T07:48:43.155Z,3.67
2023-01-02T07:51:11.640Z,3.03
2023-01-02T07:53:41.701Z,2.78
2023-01-02T07:56:10.563Z,2.67
2023-01-02T07:58:37.826Z,1.85
2023-01-02T08:01:10.573Z,2.25
2023-01-02T08:03:38.111Z,2.20
2023-01-02T08:06:11.882Z,2.92
2023-01-02T08:08:39.923Z,4.18
2023-01-02T08:11:09.258Z,4.28
2023-01-02T08:13:37.227Z,3.05
2023-01-02T08:16:13.301Z,3.90
2023-01-02T08:18:40.808Z,2.90
2023-01-02T08:21:08.867Z,2.72
2023-01-02T08:23:36.629Z,2.80
2023-01-02T08:26:08.671Z,2.97
2023-01-02T08:28:37.413Z,3.05
2023-01-02T08:31:13.265Z,2.70
2023-01-02T08:33:40.800Z,3.13
2023-01-02T08:36:09.134Z,2.50
2023-01-02T08:38:36.945Z,1.95
2023-01-02T08:41:04.648Z,1.60
2023-01-02T08:43:35.439Z,1.80
2023-01-02T08:48:34.221Z,1.50
2023-01-02T08:51:02.651Z,2.20
2023-01-02T08:53:30.173Z,1.50
2023-01-02T08:56:18.896Z,1.65
2023-01-02T08:58:52.839Z,1.70
2023-01-02T09:01:22.644Z,1.85
2023-01-02T09:03:51.336Z,1.38
2023-01-02T09:06:22.100Z,1.50
2023-01-02T09:08:53.084Z,1.90
2023-01-02T09:11:24.605Z,1.30
2023-01-02T09:13:52.902Z,1.90
2023-01-02T09:16:21.208Z,1.60
2023-01-02T09:18:50.045Z,1.85
2023-01-02T09:21:17.763Z,2.13
2023-01-02T09:23:45.252Z,1.98
2023-01-02T09:26:13.841Z,2.15
2023-01-02T09:28:41.437Z,2.45
2023-01-02T09:31:13.619Z,2.40
2023-01-02T09:33:43.081Z,2.40
2023-01-02T09:36:13.074Z,1.98
2023-01-02T09:38:40.909Z,2.30
2023-01-02T09:41:26.920Z,2.42
2023-01-02T09:44:06.804Z,1.95
2023-01-02T09:46:41.595Z,2.53
2023-01-02T09:49:19.812Z,1.90
2023-01-02T09:51:47.626Z,1.95
2023-01-02T09:54:33.873Z,1.80
2023-01-02T09:57:20.032Z,2.03
2023-01-02T10:00:04.039Z,1.95
2023-01-02T10:03:04.165Z,1.67
2023-01-02T10:05:40.740Z,1.57
2023-01-02T10:08:33.335Z,1.58
2023-01-02T10:11:20.312Z,1.50
2023-01-02T10:16:48.706Z,1.98
2023-01-02T10:19:22.713Z,2.13
2023-01-02T10:21:54.683Z,2.45
2023-01-02T10:24:45.024Z,2.42
2023-01-02T10:27:17.995Z,2.40
2023-01-02T10:30:18.590Z,2.33
2023-01-02T10:32:57.256Z,2.00
2023-01-02T10:35:42.038Z,2.28
2023-01-02T10:38:14.869Z,2.10
2023-01-02T10:40:46.029Z,2.47
2023-01-02T10:43:14.864Z,2.40
2023-01-02T10:45:42.852Z,2.70
2023-01-02T10:48:11.412Z,2.60
2023-01-02T10:50:43.056Z,2.30
2023-01-02T10:53:22.530Z,2.03
2023-01-02T10:55:52.323Z,2.63
2023-01-02T10:58:28.086Z,2.45
2023-01-02T11:01:04.676Z,2.47
2023-01-02T11:03:32.925Z,2.97
2023-01-02T11:06:23.288Z,2.33
2023-01-02T11:09:00.928Z,2.05
2023-01-02T11:11:30.106Z,2.47
2023-01-02T11:14:07.561Z,1.50
2023-01-02T11:16:40.343Z,1.60
2023-01-02T11:19:20.446Z,2.00
2023-01-02T11:21:52.827Z,1.80
2023-01-02T11:24:25.799Z,1.70
2023-01-02T11:26:53.787Z,1.45
2023-01-02T11:29:33.764Z,1.52
2023-01-02T11:32:04.027Z,1.40
2023-01-02T11:34:37.583Z,1.58
2023-01-02T11:37:17.415Z,1.92
2023-01-02T11:39:58.983Z,1.70
2023-01-02T11:42:58.989Z,1.77
2023-01-02T11:45:27.363Z,2.07
2023-01-02T11:48:00.700Z,1.92
2023-01-02T11:50:30.769Z,2.15
2023-01-02T11:52:59.820Z,1.50
2023-01-02T11:55:37.074Z,3.15
2023-01-02T11:58:36.316Z,1.83
2023-01-02T12:01:13.518Z,1.70
2023-01-02T12:03:41.126Z,1.88
2023-01-02T12:06:17.011Z,2.90
2023-01-02T12:09:07.098Z,2.42
2023-01-02T12:11:58.647Z,2.00
2023-01-02T12:15:04.620Z,1.83
2023-01-02T12:17:42.280Z,1.85
2023-01-02T12:20:24.091Z,1.85
2023-01-02T12:23:05.941Z,1.80
2023-01-02T12:25:33.168Z,2.10
2023-01-02T12:28:24.615Z,1.95
2023-01-02T12:31:13.519Z,1.88
2023-01-02T12:33:55.454Z,2.42
2023-01-02T12:36:28.737Z,1.88
2023-01-02T12:38:59.566Z,2.13
2023-01-02T12:42:02.078Z,1.88
2023-01-02T12:44:46.794Z,1.80
2023-01-02T12:47:38.745Z,1.30
2023-01-02T12:50:33.507Z,2.30
2023-01-02T12:53:27.541Z,1.73
2023-01-02T12:56:13.535Z,1.52
2023-01-02T12:59:18.224Z,1.52
2023-01-02T13:01:55.696Z,1.70
2023-01-02T13:04:26.711Z,2.00
2023-01-02T13:07:02.798Z,1.55
2023-01-02T13:09:40.623Z,1.90
2023-01-02T13:12:14.964Z,3.00
2023-01-02T13:14:58.727Z,2.00
2023-01-02T13:17:44.823Z,1.77
2023-01-02T13:20:24.476Z,2.35
2023-01-02T13:23:17.884Z,2.25
2023-01-02T13:25:48.033Z,2.28
2023-01-02T13:28:17.361Z,2.40
2023-01-02T13:31:35.824Z,2.00
2023-01-02T13:33:54.684Z,2.45
2023-01-02T13:36:28.898Z,2.03
2023-01-02T13:39:03.600Z,2.03
2023-01-02T13:41:58.164Z,2.08
2023-01-02T13:44:36.732Z,1.70
2023-01-02T13:47:25.650Z,1.88
2023-01-02T13:50:13.148Z,1.85
2023-01-02T13:52:41.631Z,2.33
2023-01-02T13:55:31.565Z,2.42
2023-01-02T13:58:15.767Z,2.40
2023-01-02T14:00:45.852Z,2.30
2023-01-02T14:03:35.056Z,1.85
2023-01-02T14:06:28.939Z,2.97
2023-01-02T14:09:05.687Z,1.90
2023-01-02T14:11:56.083Z,1.75
2023-01-02T14:14:46.315Z,2.42
2023-01-02T14:17:32.383Z,2.95
2023-01-02T14:20:31.086Z,1.98
2023-01-02T14:23:05.826Z,2.33
2023-01-02T14:25:45.368Z,2.28
2023-01-02T14:28:21.783Z,2.00
2023-01-02T14:30:50.043Z,2.90
2023-01-02T14:33:36.480Z,2.15
2023-01-02T14:36:10.441Z,3.20
2023-01-02T14:38:43.213Z,2.22
2023-01-02T14:42:10.382Z,3.42
2023-01-02T14:44:55.259Z,2.75
2023-01-02T14:48:06.777Z,2.95
2023-01-02T14:50:36.496Z,2.65
2023-01-02T14:53:09.285Z,2.70
2023-01-02T14:55:42.372Z,3.85
2023-01-02T14:58:25.005Z,2.35
2023-01-02T15:00:57.792Z,2.78
2023-01-02T15:03:42.712Z,2.95
2023-01-02T15:06:26.618Z,2.60
2023-01-02T15:09:00.840Z,2.58
2023-01-02T15:11:46.895Z,3.28
2023-01-02T15:14:22.053Z,2.33
2023-01-02T15:16:53.872Z,3.60
2023-01-02T15:19:33.372Z,3.72
2023-01-02T15:22:09.876Z,3.70
2023-01-02T15:24:37.663Z,2.53
2023-01-02T15:27:23.028Z,2.70
2023-01-02T15:29:53.950Z,2.72
2023-01-02T15:32:24.622Z,2.75
2023-01-02T15:37:22.393Z,4.28
2023-01-02T15:39:53.976Z,3.72
2023-01-02T15:42:45.994Z,2.78
2023-01-02T15:45:17.609Z,2.90
2023-01-02T15:47:48.932Z,2.90
2023-01-02T15:50:21.196Z,3.38
2023-01-02T15:52:58.500Z,3.00
2023-01-02T15:55:33.578Z,3.00
2023-01-02T15:58:20.661Z,3.22
2023-01-02T16:00:48.046Z,3.50
2023-01-02T16:04:00.686Z,3.20
2023-01-02T16:06:42.773Z,3.03
2023-01-02T16:09:24.720Z,2.65
2023-01-02T16:11:55.471Z,3.85
2023-01-02T16:17:22.265Z,3.55
2023-01-02T16:19:54.704Z,2.88
2023-01-02T16:22:49.871Z,3.10
2023-01-02T16:25:24.681Z,4.07
2023-01-02T16:28:34.155Z,2.97
2023-01-02T16:31:13.263Z,3.38
2023-01-02T16:33:44.050Z,3.50
2023-01-02T16:39:00.189Z,4.10
2023-01-02T16:41:37.803Z,3.35
2023-01-02T16:44:14.673Z,3.40
2023-01-02T16:46:45.354Z,4.20
2023-01-02T16:49:21.757Z,4.00
2023-01-02T16:51:54.952Z,3.50
2023-01-02T16:54:22.761Z,4.05
2023-01-02T16:56:50.057Z,4.53
2023-01-02T16:59:17.422Z,3.70
2023-01-02T17:01:45.209Z,4.30
2023-01-02T17:04:14.217Z,3.97
2023-01-02T17:06:41.610Z,4.18
2023-01-02T17:09:10.157Z,4.13
2023-01-02T17:11:38.127Z,3.88
2023-01-02T17:14:05.745Z,4.03
2023-01-02T17:16:33.194Z,4.50
2023-01-02T17:19:00.510Z,4.35
2023-01-02T17:21:32.770Z,4.45
2023-01-02T17:24:00.329Z,4.32
2023-01-02T17:26:27.693Z,4.18
2023-01-02T17:28:54.979Z,4.68
2023-01-02T17:31:25.699Z,4.22
2023-01-02T17:33:53.409Z,4.72
2023-01-02T17:36:20.654Z,4.65
2023-01-02T17:38:48.287Z,4.68
2023-01-02T17:41:15.482Z,4.88
2023-01-02T17:44:02.559Z,6.00
2023-01-02T17:49:18.052Z,5.15
2023-01-02T17:51:45.470Z,4.97
2023-01-02T17:54:12.940Z,4.80
2023-01-02T17:56:42.812Z,4.30
2023-01-02T17:59:10.120Z,4.90
2023-01-02T18:01:38.811Z,4.80
2023-01-02T18:04:06.447Z,4.80
2023-01-02T18:06:34.348Z,4.45
2023-01-02T18:09:02.353Z,4.30
2023-01-02T18:11:29.775Z,4.72
2023-01-02T18:13:57.997Z,4.80
2023-01-02T18:16:34.649Z,4.75
2023-01-02T18:19:04.412Z,4.28
2023-01-02T18:21:34.318Z,5.10
2023-01-02T18:24:07.210Z,5.07
2023-01-02T18:26:34.563Z,4.93
2023-01-02T18:29:09.748Z,3.80
2023-01-02T18:31:42.625Z,4.70
2023-01-02T18:34:46.894Z,5.90
2023-01-02T18:37:28.524Z,6.63
2023-01-02T18:39:57.651Z,5.18
2023-01-02T18:42:27.096Z,4.70
2023-01-02T18:44:56.875Z,4.93
2023-01-02T18:47:35.027Z,4.72
2023-01-02T18:50:24.275Z,4.03
2023-01-02T18:52:52.241Z,4.43
2023-01-02T18:55:29.515Z,3.90
2023-01-02T18:58:04.752Z,4.30
2023-01-02T19:00:34.933Z,4.38
2023-01-02T19:03:07.153Z,4.07
2023-01-02T19:05:46.565Z,4.32
2023-01-02T19:08:19.879Z,4.25
2023-01-02T19:10:56.332Z,4.45
2023-01-02T19:13:25.387Z,4.32
2023-01-02T19:15:59.797Z,3.72
2023-01-02T19:18:39.997Z,4.20
2023-01-02T19:21:13.280Z,5.32
2023-01-02T19:23:44.569Z,4.18
2023-01-02T19:26:20.032Z,4.30
2023-01-02T19:29:00.101Z,5.28
2023-01-02T19:31:41.422Z,4.32
2023-01-02T19:34:26.719Z,3.90
2023-01-02T19:37:18.611Z,4.28
2023-01-02T19:39:55.479Z,4.15
2023-01-02T19:42:24.823Z,4.20
2023-01-02T19:44:53.823Z,4.55
2023-01-02T19:47:23.212Z,5.15
2023-01-02T19:49:51.295Z,4.47
2023-01-02T19:52:20.063Z,4.60
2023-01-02T19:54:47.757Z,5.05
2023-01-02T19:57:17.941Z,4.10
2023-01-02T19:59:46.661Z,4.60
2023-01-02T20:02:16.264Z,4.25
2023-01-02T20:04:44.957Z,3.97
2023-01-02T20:07:13.918Z,4.20
2023-01-02T20:09:41.263Z,3.63
2023-01-02T20:12:28.036Z,4.25
2023-01-02T20:14:56.552Z,4.10
2023-01-02T20:17:27.017Z,3.60
2023-01-02T20:19:54.787Z,4.15
2023-01-02T20:22:22.732Z,4.00
2023-01-02T20:24:50.297Z,3.05
2023-01-02T20:27:17.661Z,4.63
2023-01-02T20:29:44.981Z,3.83
2023-01-02T20:32:12.296Z,3.78
2023-01-02T20:34:39.610Z,4.28
2023-01-02T20:37:07.264Z,4.43
2023-01-02T20:39:35.398Z,3.70
2023-01-02T20:42:07.944Z,3.95
2023-01-02T20:44:40.345Z,4.00
2023-01-02T20:47:08.291Z,4.03
2023-01-02T20:49:38.205Z,3.88
2023-01-02T20:52:06.052Z,3.60
2023-01-02T20:54:33.623Z,3.58
2023-01-02T20:57:01.260Z,3.78
2023-01-02T20:59:28.904Z,4.38
2023-01-02T21:01:56.488Z,3.78
2023-01-02T21:04:34.123Z,3.58
2023-01-02T21:07:05.442Z,3.73
2023-01-02T21:09:33.292Z,4.10
2023-01-02T21:12:01.211Z,4.38
2023-01-02T21:14:32.449Z,3.13
2023-01-02T21:17:05.159Z,3.90
2023-01-02T21:19:32.440Z,2.92
2023-01-02T21:21:59.954Z,2.83
2023-01-02T21:24:27.185Z,2.85
2023-01-02T21:26:54.613Z,2.72
2023-01-02T21:29:21.851Z,2.40
2023-01-02T21:31:49.418Z,2.85
2023-01-02T21:34:16.737Z,2.95
2023-01-02T21:36:44.103Z,3.10
2023-01-02T21:39:11.695Z,2.90
2023-01-02T21:41:57.387Z,3.35
2023-01-02T21:44:25.989Z,3.35
2023-01-02T21:46:53.291Z,4.00
2023-01-02T21:49:21.606Z,3.10
2023-01-02T21:51:48.888Z,2.60
2023-01-02T21:54:18.304Z,2.92
2023-01-02T21:56:45.764Z,3.45
2023-01-02T21:59:13.163Z,2.30
2023-01-02T22:01:40.594Z,4.00
2023-01-02T22:04:08.057Z,2.90
2023-01-02T22:06:36.689Z,2.72
2023-01-02T22:09:04.577Z,2.72
2023-01-02T22:11:50.451Z,2.20
2023-01-02T22:14:17.723Z,2.10
2023-01-02T22:16:45.133Z,2.63
2023-01-02T22:19:12.542Z,2.30
2023-01-02T22:21:40.168Z,2.80
2023-01-02T22:24:09.064Z,2.58
2023-01-02T22:26:37.999Z,2.40
2023-01-02T22:29:05.905Z,2.90
2023-01-02T22:31:33.922Z,2.70
2023-01-02T22:34:03.182Z,2.55
2023-01-02T22:36:31.737Z,2.50
2023-01-02T22:39:27.109Z,2.63
2023-01-02T22:41:51.313Z,3.15
2023-01-02T22:44:23.764Z,2.85
2023-01-02T22:46:55.258Z,3.13
2023-01-02T22:49:25.782Z,3.42
2023-01-02T22:52:07.146Z,3.38
2023-01-02T22:54:34.700Z,2.95
2023-01-02T22:57:02.373Z,2.83
2023-01-02T22:59:30.007Z,2.75
2023-01-02T23:01:57.318Z,3.05
2023-01-02T23:04:25.346Z,2.60
2023-01-02T23:07:22.618Z,2.58
2023-01-02T23:09:43.665Z,3.20
2023-01-02T23:12:11.979Z,3.17
2023-01-02T23:14:39.844Z,3.00
2023-01-02T23:17:25.807Z,3.10
2023-01-02T23:19:53.106Z,3.08
2023-01-02T23:22:20.446Z,4.22
2023-01-02T23:24:47.837Z,3.15
2023-01-02T23:27:15.409Z,3.30
2023-01-02T23:29:42.934Z,3.13
2023-01-02T23:32:10.840Z,3.83
2023-01-02T23:34:38.527Z,3.80
2023-01-02T23:37:06.043Z,3.95
2023-01-02T23:39:34.509Z,3.67
2023-01-02T23:42:02.375Z,4.22
2023-01-02T23:44:30.034Z,3.95
2023-01-02T23:46:57.408Z,4.60
2023-01-02T23:49:25.537Z,4.35
2023-01-02T23:51:53.853Z,4.50
2023-01-02T23:54:22.257Z,4.57
2023-01-02T23:56:53.071Z,4.47
